createdAt,value
2018-05-27T00:02:08.687Z,21.00
2018-05-27T00:04:36.248Z,21.00
2018-05-27T00:07:03.792Z,21.00
2018-05-27T00:09:31.377Z,20.90
2018-05-27T00:11:58.911Z,20.90
2018-05-27T00:14:26.373Z,20.90
2018-05-27T00:16:53.841Z,20.90
2018-05-27T00:19:21.347Z,20.90
2018-05-27T00:21:49.227Z,20.90
2018-05-27T00:24:17.124Z,20.90
2018-05-27T00:26:44.616Z,20.90
2018-05-27T00:29:12.069Z,20.90
2018-05-27T00:31:39.538Z,20.90
2018-05-27T00:34:07.019Z,20.90
2018-05-27T00:36:34.574Z,20.90
2018-05-27T00:39:02.042Z,20.90
2018-05-27T00:41:29.505Z,20.90
2018-05-27T00:43:56.961Z,20.90
2018-05-27T00:46:24.874Z,20.80
2018-05-27T00:48:52.407Z,20.80
2018-05-27T00:51:19.879Z,20.80
2018-05-27T00:53:59.723Z,20.70
2018-05-27T00:56:27.172Z,20.70
2018-05-27T00:58:54.720Z,20.70
2018-05-27T01:01:22.203Z,20.70
2018-05-27T01:03:49.689Z,20.60
2018-05-27T01:06:17.613Z,20.60
2018-05-27T01:08:45.211Z,20.60
2018-05-27T01:11:13.162Z,20.60
2018-05-27T01:13:40.622Z,20.60
2018-05-27T01:16:08.231Z,20.50
2018-05-27T01:18:35.715Z,20.50
2018-05-27T01:21:03.164Z,20.50
2018-05-27T01:23:30.981Z,20.50
2018-05-27T01:25:58.455Z,20.50
2018-05-27T01:28:25.908Z,20.50
2018-05-27T01:30:53.392Z,20.50
2018-05-27T01:33:21.271Z,20.50
2018-05-27T01:35:49.174Z,20.50
2018-05-27T01:38:16.688Z,20.50
2018-05-27T01:40:44.145Z,20.50
2018-05-27T01:43:11.721Z,20.40
2018-05-27T01:45:39.279Z,20.40
2018-05-27T01:48:06.817Z,20.40
2018-05-27T01:50:34.290Z,20.40
2018-05-27T01:53:01.776Z,20.40
2018-05-27T01:55:30.631Z,20.40
2018-05-27T01:57:58.088Z,20.40
2018-05-27T02:00:25.695Z,20.40
2018-05-27T02:02:53.237Z,20.30
2018-05-27T02:05:20.714Z,20.30
2018-05-27T02:07:48.173Z,20.30
2018-05-27T02:10:15.736Z,20.30
2018-05-27T02:12:43.252Z,20.20
2018-05-27T02:15:10.765Z,20.20
2018-05-27T02:17:38.355Z,20.20
2018-05-27T02:20:06.321Z,20.10
2018-05-27T02:22:34.303Z,20.10
2018-05-27T02:25:02.229Z,20.10
2018-05-27T02:27:29.704Z,20.10
2018-05-27T02:29:57.260Z,20.10
2018-05-27T02:32:24.762Z,20.00
2018-05-27T02:34:52.637Z,20.00
2018-05-27T02:37:20.560Z,20.00
2018-05-27T02:39:48.056Z,20.00
2018-05-27T02:42:15.565Z,20.00
2018-05-27T02:44:43.017Z,20.00
2018-05-27T02:47:10.523Z,20.00
2018-05-27T02:49:38.032Z,20.00
2018-05-27T02:52:05.486Z,20.00
2018-05-27T02:54:33.355Z,20.00
2018-05-27T02:57:01.318Z,20.00
2018-05-27T02:59:28.784Z,20.00
2018-05-27T03:01:56.682Z,20.00
2018-05-27T03:04:24.486Z,20.00
2018-05-27T03:06:51.962Z,20.00
2018-05-27T03:09:19.443Z,20.00
2018-05-27T03:11:46.927Z,20.00
2018-05-27T03:14:14.881Z,20.00
2018-05-27T03:16:42.340Z,20.00
2018-05-27T03:19:09.816Z,20.00
2018-05-27T03:21:37.697Z,20.00
2018-05-27T03:24:05.535Z,20.00
2018-05-27T03:26:33.364Z,20.00
2018-05-27T03:29:00.843Z,20.00
2018-05-27T03:31:28.353Z,19.90
2018-05-27T03:33:56.219Z,19.90
2018-05-27T03:36:24.072Z,20.00
2018-05-27T03:38:51.623Z,20.00
2018-05-27T03:41:19.103Z,19.90
2018-05-27T03:43:46.585Z,20.00
2018-05-27T03:46:14.040Z,20.00
2018-05-27T03:48:41.908Z,20.00
2018-05-27T03:51:09.876Z,20.00
2018-05-27T03:53:37.382Z,20.00
2018-05-27T03:56:04.841Z,20.00
2018-05-27T03:58:32.339Z,20.00
2018-05-27T04:00:59.824Z,20.00
2018-05-27T04:03:27.430Z,20.10
2018-05-27T04:06:06.780Z,20.10
2018-05-27T04:08:35.341Z,20.10
2018-05-27T04:11:02.850Z,20.10
2018-05-27T04:13:30.394Z,20.10
2018-05-27T04:15:57.942Z,20.10
2018-05-27T04:18:25.491Z,20.10
2018-05-27T04:20:53.457Z,20.20
2018-05-27T04:23:21.351Z,20.20
2018-05-27T04:25:48.885Z,20.20
2018-05-27T04:28:16.364Z,20.20
2018-05-27T04:30:44.281Z,20.30
2018-05-27T04:33:11.928Z,20.30
2018-05-27T04:35:39.408Z,20.30
2018-05-27T04:38:06.947Z,20.30
2018-05-27T04:40:34.429Z,20.30
2018-05-27T04:43:01.932Z,20.30
2018-05-27T04:45:29.491Z,20.40
2018-05-27T04:47:57.474Z,20.40
2018-05-27T04:50:25.485Z,20.50
2018-05-27T04:52:52.982Z,20.50
2018-05-27T04:55:20.476Z,20.50
2018-05-27T04:57:47.996Z,20.50
2018-05-27T05:00:15.474Z,20.50
2018-05-27T05:02:43.202Z,20.50
2018-05-27T05:05:10.715Z,20.60
2018-05-27T05:07:38.203Z,20.60
2018-05-27T05:10:06.124Z,20.60
2018-05-27T05:12:33.631Z,20.60
2018-05-27T05:15:01.619Z,20.70
2018-05-27T05:17:29.579Z,20.70
2018-05-27T05:19:57.463Z,20.70
2018-05-27T05:22:25.184Z,20.70
2018-05-27T05:24:52.797Z,20.80
2018-05-27T05:27:20.705Z,20.90
2018-05-27T05:29:48.171Z,20.90
2018-05-27T05:32:15.680Z,20.90
2018-05-27T05:34:43.148Z,20.90
2018-05-27T05:37:11.010Z,20.90
2018-05-27T05:39:38.577Z,20.90
2018-05-27T05:42:06.483Z,20.90
2018-05-27T05:44:33.981Z,20.90
2018-05-27T05:47:01.437Z,21.00
2018-05-27T05:49:28.931Z,21.00
2018-05-27T05:51:56.447Z,21.00
2018-05-27T05:54:23.960Z,21.00
2018-05-27T05:56:51.478Z,21.00
2018-05-27T05:59:19.007Z,21.10
2018-05-27T06:01:46.896Z,21.20
2018-05-27T06:04:15.078Z,21.20
2018-05-27T06:06:42.544Z,21.30
2018-05-27T06:09:10.061Z,21.40
2018-05-27T06:11:37.571Z,21.40
2018-05-27T06:14:05.100Z,21.50
2018-05-27T06:16:33.177Z,21.70
2018-05-27T06:19:01.045Z,21.80
2018-05-27T06:21:28.961Z,21.90
2018-05-27T06:23:56.434Z,21.90
2018-05-27T06:26:23.969Z,22.00
2018-05-27T06:28:51.667Z,22.10
2018-05-27T06:31:19.207Z,22.10
2018-05-27T06:33:46.756Z,22.20
2018-05-27T06:36:15.411Z,22.40
2018-05-27T06:38:42.976Z,22.40
2018-05-27T06:41:10.493Z,22.40
2018-05-27T06:43:38.024Z,22.50
2018-05-27T06:46:06.011Z,22.70
2018-05-27T06:48:33.601Z,22.70
2018-05-27T06:51:01.264Z,22.80
2018-05-27T06:53:28.854Z,22.90
2018-05-27T06:55:56.420Z,23.00
2018-05-27T06:58:23.891Z,23.10
2018-05-27T07:00:51.367Z,23.20
2018-05-27T07:03:18.887Z,23.30
2018-05-27T07:05:46.435Z,23.40
2018-05-27T07:08:14.688Z,23.40
2018-05-27T07:10:42.285Z,23.50
2018-05-27T07:13:09.767Z,23.60
2018-05-27T07:15:37.264Z,23.70
2018-05-27T07:18:04.841Z,23.80
2018-05-27T07:20:32.324Z,23.90
2018-05-27T07:22:59.848Z,24.00
2018-05-27T07:25:27.416Z,24.10
2018-05-27T07:27:54.935Z,24.20
2018-05-27T07:30:22.469Z,24.30
2018-05-27T07:32:50.384Z,24.50
2018-05-27T07:35:17.849Z,24.60
2018-05-27T07:37:45.342Z,24.70
2018-05-27T07:40:14.036Z,24.70
2018-05-27T07:42:41.563Z,24.80
2018-05-27T07:45:09.057Z,24.90
2018-05-27T07:47:36.668Z,24.90
2018-05-27T07:50:04.139Z,25.00
2018-05-27T07:52:31.702Z,25.00
2018-05-27T07:54:59.216Z,25.10
2018-05-27T07:57:26.689Z,25.20
2018-05-27T07:59:54.179Z,25.30
2018-05-27T08:02:22.113Z,25.40
2018-05-27T08:04:50.023Z,25.40
2018-05-27T08:07:17.902Z,25.40
2018-05-27T08:09:45.405Z,25.50
2018-05-27T08:12:12.918Z,25.50
2018-05-27T08:14:40.405Z,25.50
2018-05-27T08:17:07.893Z,25.50
2018-05-27T08:19:35.394Z,25.50
2018-05-27T08:22:03.372Z,25.60
2018-05-27T08:24:31.277Z,25.70
2018-05-27T08:26:58.819Z,25.70
2018-05-27T08:29:26.310Z,25.70
2018-05-27T08:31:53.880Z,25.80
2018-05-27T08:34:21.369Z,25.80
2018-05-27T08:36:48.941Z,25.80
2018-05-27T08:39:16.434Z,25.90
2018-05-27T08:41:44.298Z,26.00
2018-05-27T08:44:12.981Z,26.00
2018-05-27T08:46:40.517Z,26.10
2018-05-27T08:49:07.978Z,26.20
2018-05-27T08:51:35.704Z,26.30
2018-05-27T08:54:03.179Z,26.40
2018-05-27T08:56:30.656Z,26.40
2018-05-27T08:58:58.156Z,26.50
2018-05-27T09:01:25.693Z,26.50
2018-05-27T09:03:53.150Z,26.50
2018-05-27T09:06:20.640Z,26.50
2018-05-27T09:08:48.560Z,26.60
2018-05-27T09:11:16.068Z,26.60
2018-05-27T09:13:43.562Z,26.60
2018-05-27T09:16:11.455Z,26.80
2018-05-27T09:18:39.009Z,26.80
2018-05-27T09:21:06.552Z,26.80
2018-05-27T09:23:34.426Z,27.00
2018-05-27T09:26:02.331Z,27.10
2018-05-27T09:28:29.810Z,27.10
2018-05-27T09:30:57.406Z,27.20
2018-05-27T09:33:24.914Z,27.20
2018-05-27T09:35:52.424Z,27.30
2018-05-27T09:38:20.021Z,27.50
2018-05-27T09:40:47.880Z,28.40
2018-05-27T09:43:15.771Z,28.90
2018-05-27T09:45:43.737Z,29.60
2018-05-27T09:48:12.160Z,30.20
2018-05-27T09:50:39.629Z,30.20
2018-05-27T09:53:07.125Z,30.80
2018-05-27T09:55:34.717Z,31.20
2018-05-27T09:58:02.261Z,31.50
2018-05-27T10:00:29.742Z,31.40
2018-05-27T10:02:57.270Z,31.00
2018-05-27T10:05:24.750Z,30.60
2018-05-27T10:07:52.233Z,30.20
2018-05-27T10:10:20.160Z,29.70
2018-05-27T10:12:47.718Z,29.70
2018-05-27T10:15:15.147Z,29.50
2018-05-27T10:17:42.612Z,29.40
2018-05-27T10:20:10.267Z,29.20
2018-05-27T10:22:37.833Z,29.10
2018-05-27T10:25:05.325Z,28.90
2018-05-27T10:27:32.834Z,28.80
2018-05-27T10:30:00.828Z,28.60
2018-05-27T10:32:28.292Z,28.70
2018-05-27T10:34:55.842Z,28.60
2018-05-27T10:37:23.743Z,28.50
2018-05-27T10:39:51.212Z,28.50
2018-05-27T10:42:18.708Z,28.40
2018-05-27T10:44:46.202Z,28.40
2018-05-27T10:47:14.079Z,28.30
2018-05-27T10:49:42.073Z,28.30
2018-05-27T10:52:09.582Z,28.30
2018-05-27T10:54:37.033Z,28.30
2018-05-27T10:57:04.540Z,28.20
2018-05-27T10:59:32.493Z,28.20
2018-05-27T11:02:00.001Z,28.20
2018-05-27T11:04:27.557Z,28.20
2018-05-27T11:06:55.589Z,28.20
2018-05-27T11:09:23.061Z,28.10
2018-05-27T11:11:51.027Z,28.10
2018-05-27T11:14:18.606Z,28.10
2018-05-27T11:16:46.479Z,28.20
2018-05-27T11:19:14.357Z,28.20
2018-05-27T11:21:42.228Z,28.10
2018-05-27T11:24:10.168Z,28.10
2018-05-27T11:26:37.730Z,28.10
2018-05-27T11:29:05.225Z,28.10
2018-05-27T11:31:33.137Z,28.10
2018-05-27T11:34:00.801Z,28.10
2018-05-27T11:36:28.399Z,28.10
2018-05-27T11:38:56.396Z,28.20
2018-05-27T11:41:24.319Z,28.20
2018-05-27T11:43:51.913Z,28.20
2018-05-27T11:46:19.875Z,28.40
2018-05-27T11:48:47.500Z,28.40
2018-05-27T11:51:15.060Z,28.50
2018-05-27T11:53:42.586Z,28.60
2018-05-27T11:56:10.135Z,28.70
2018-05-27T11:58:37.693Z,28.70
2018-05-27T12:01:06.187Z,28.80
2018-05-27T12:03:34.807Z,28.90
2018-05-27T12:06:02.814Z,29.10
2018-05-27T12:08:30.373Z,29.10
2018-05-27T12:10:57.905Z,29.20
2018-05-27T12:13:25.897Z,29.30
2018-05-27T12:15:54.002Z,29.30
2018-05-27T12:18:21.595Z,29.30
2018-05-27T12:20:49.164Z,29.30
2018-05-27T12:23:16.725Z,29.30
2018-05-27T12:25:44.560Z,29.30
2018-05-27T12:28:12.091Z,29.30
2018-05-27T12:30:40.728Z,29.40
2018-05-27T12:33:08.225Z,29.40
2018-05-27T12:35:35.740Z,29.40
2018-05-27T12:38:03.405Z,29.40
2018-05-27T12:40:30.940Z,29.40
2018-05-27T12:42:59.028Z,29.30
2018-05-27T12:45:26.910Z,29.20
2018-05-27T12:47:54.460Z,29.20
2018-05-27T12:50:22.406Z,29.10
2018-05-27T12:52:49.899Z,29.00
2018-05-27T12:55:17.435Z,28.90
2018-05-27T12:57:45.444Z,28.80
2018-05-27T13:00:12.923Z,28.80
2018-05-27T13:02:40.456Z,28.80
2018-05-27T13:05:08.156Z,28.70
2018-05-27T13:07:35.661Z,28.70
2018-05-27T13:10:03.177Z,28.60
2018-05-27T13:12:30.675Z,28.50
2018-05-27T13:14:58.362Z,28.50
2018-05-27T13:17:25.839Z,28.40
2018-05-27T13:19:53.786Z,28.50
2018-05-27T13:22:21.324Z,28.50
2018-05-27T13:24:48.894Z,28.40
2018-05-27T13:27:17.538Z,28.40
2018-05-27T13:29:45.431Z,28.40
2018-05-27T13:32:12.995Z,28.40
2018-05-27T13:34:40.647Z,28.40
2018-05-27T13:37:08.612Z,28.40
2018-05-27T13:39:36.602Z,28.30
2018-05-27T13:42:04.169Z,28.30
2018-05-27T13:44:31.672Z,28.30
2018-05-27T13:46:59.813Z,28.30
2018-05-27T13:49:27.305Z,28.20
2018-05-27T13:51:55.018Z,28.10
2018-05-27T13:54:23.096Z,28.00
2018-05-27T13:56:51.108Z,28.00
2018-05-27T13:59:18.760Z,28.00
2018-05-27T14:01:46.375Z,27.90
2018-05-27T14:04:13.980Z,27.90
2018-05-27T14:06:42.045Z,27.90
2018-05-27T14:09:10.003Z,27.90
2018-05-27T14:11:37.494Z,27.90
2018-05-27T14:14:05.480Z,27.80
2018-05-27T14:16:33.160Z,27.80
2018-05-27T14:19:00.826Z,27.70
2018-05-27T14:21:28.377Z,27.70
2018-05-27T14:23:55.960Z,27.70
2018-05-27T14:26:23.436Z,27.60
2018-05-27T14:28:51.048Z,27.60
2018-05-27T14:31:19.044Z,27.60
2018-05-27T14:33:46.541Z,27.60
2018-05-27T14:36:14.174Z,27.60
2018-05-27T14:38:41.661Z,27.60
2018-05-27T14:41:09.260Z,27.50
2018-05-27T14:43:37.237Z,27.50
2018-05-27T14:46:05.594Z,27.50
2018-05-27T14:48:33.208Z,27.50
2018-05-27T14:51:00.748Z,27.50
2018-05-27T14:53:28.268Z,27.40
2018-05-27T14:55:55.792Z,27.40
2018-05-27T14:58:23.790Z,27.30
2018-05-27T15:00:51.428Z,27.30
2018-05-27T15:03:18.973Z,27.30
2018-05-27T15:05:46.596Z,27.20
2018-05-27T15:08:14.102Z,27.20
2018-05-27T15:10:42.094Z,27.10
2018-05-27T15:13:09.723Z,27.10
2018-05-27T15:15:37.212Z,27.10
2018-05-27T15:18:04.914Z,27.00
2018-05-27T15:20:32.525Z,27.00
2018-05-27T15:22:59.994Z,27.00
2018-05-27T15:25:27.463Z,27.00
2018-05-27T15:27:55.617Z,26.80
2018-05-27T15:30:23.211Z,26.90
2018-05-27T15:32:50.867Z,26.80
2018-05-27T15:35:18.597Z,26.80
2018-05-27T15:37:46.252Z,26.70
2018-05-27T15:40:13.806Z,26.70
2018-05-27T15:42:41.321Z,26.70
2018-05-27T15:45:09.624Z,26.70
2018-05-27T15:47:37.174Z,26.70
2018-05-27T15:50:04.723Z,26.60
2018-05-27T15:52:32.351Z,26.60
2018-05-27T15:55:00.890Z,26.60
2018-05-27T15:57:28.795Z,26.50
2018-05-27T15:59:56.992Z,26.50
2018-05-27T16:02:24.672Z,26.50
2018-05-27T16:04:52.187Z,26.40
2018-05-27T16:07:19.788Z,26.40
2018-05-27T16:09:47.305Z,26.30
2018-05-27T16:12:15.294Z,26.20
2018-05-27T16:14:43.161Z,26.10
2018-05-27T16:17:11.063Z,26.00
2018-05-27T16:19:38.715Z,26.00
2018-05-27T16:22:07.280Z,26.00
2018-05-27T16:24:34.788Z,26.00
2018-05-27T16:27:02.278Z,25.90
2018-05-27T16:29:29.747Z,25.90
2018-05-27T16:31:57.331Z,25.90
2018-05-27T16:34:24.796Z,25.80
2018-05-27T16:36:52.297Z,25.80
2018-05-27T16:39:19.788Z,25.80
2018-05-27T16:41:47.307Z,25.70
2018-05-27T16:44:15.309Z,25.60
2018-05-27T16:46:42.808Z,25.60
2018-05-27T16:49:10.289Z,25.50
2018-05-27T16:51:38.190Z,25.40
2018-05-27T16:54:07.165Z,25.40
2018-05-27T16:56:35.086Z,25.30
2018-05-27T16:59:02.589Z,25.30
2018-05-27T17:01:30.179Z,25.30
2018-05-27T17:03:58.144Z,25.20
2018-05-27T17:06:26.027Z,25.20
2018-05-27T17:08:53.601Z,25.20
2018-05-27T17:11:21.851Z,25.20
2018-05-27T17:13:49.859Z,25.10
2018-05-27T17:16:17.321Z,25.10
2018-05-27T17:18:44.863Z,25.00
2018-05-27T17:21:12.799Z,25.00
2018-05-27T17:23:40.322Z,25.00
2018-05-27T17:26:07.821Z,25.00
2018-05-27T17:28:35.335Z,24.90
2018-05-27T17:31:02.989Z,24.90
2018-05-27T17:33:30.923Z,24.80
2018-05-27T17:35:59.331Z,24.80
2018-05-27T17:38:27.656Z,24.80
2018-05-27T17:40:55.437Z,24.80
2018-05-27T17:43:22.925Z,24.70
2018-05-27T17:45:50.646Z,24.70
2018-05-27T17:48:18.113Z,24.70
2018-05-27T17:50:45.638Z,24.70
2018-05-27T17:53:14.027Z,24.60
2018-05-27T17:55:41.515Z,24.60
2018-05-27T17:58:09.488Z,24.60
2018-05-27T18:00:37.364Z,24.60
2018-05-27T18:03:04.897Z,24.60
2018-05-27T18:05:32.433Z,24.50
2018-05-27T18:07:59.985Z,24.50
2018-05-27T18:10:27.589Z,24.50
2018-05-27T18:12:55.100Z,24.50
2018-05-27T18:15:22.651Z,24.40
2018-05-27T18:17:50.134Z,24.40
2018-05-27T18:20:17.885Z,24.40
2018-05-27T18:22:45.563Z,24.40
2018-05-27T18:25:13.115Z,24.40
2018-05-27T18:27:41.003Z,24.40
2018-05-27T18:30:08.482Z,24.30
2018-05-27T18:32:36.014Z,24.30
2018-05-27T18:35:03.558Z,24.30
2018-05-27T18:37:31.499Z,24.20
2018-05-27T18:39:59.002Z,24.20
2018-05-27T18:42:26.904Z,24.10
2018-05-27T18:44:54.434Z,24.10
2018-05-27T18:47:22.428Z,24.00
2018-05-27T18:49:50.578Z,24.00
2018-05-27T18:52:18.551Z,24.00
2018-05-27T18:54:46.064Z,24.00
2018-05-27T18:57:13.570Z,23.90
2018-05-27T18:59:41.516Z,23.90
2018-05-27T19:02:09.168Z,23.90
2018-05-27T19:04:36.740Z,23.90
2018-05-27T19:07:04.947Z,23.90
2018-05-27T19:09:32.527Z,23.90
2018-05-27T19:12:00.592Z,23.90
2018-05-27T19:14:28.201Z,23.90
2018-05-27T19:16:55.673Z,23.90
2018-05-27T19:19:23.334Z,23.90
2018-05-27T19:21:50.868Z,23.90
2018-05-27T19:24:18.558Z,23.90
2018-05-27T19:26:46.145Z,23.90
2018-05-27T19:29:13.670Z,23.80
2018-05-27T19:31:41.186Z,23.70
2018-05-27T19:34:08.678Z,23.70
2018-05-27T19:36:36.894Z,23.70
2018-05-27T19:39:04.416Z,23.70
2018-05-27T19:41:32.380Z,23.70
2018-05-27T19:44:00.273Z,23.70
2018-05-27T19:46:28.179Z,23.70
2018-05-27T19:48:55.946Z,23.70
2018-05-27T19:51:23.458Z,23.60
2018-05-27T19:53:50.943Z,23.60
2018-05-27T19:56:18.938Z,23.60
2018-05-27T19:58:46.466Z,23.60
2018-05-27T20:01:14.181Z,23.60
2018-05-27T20:03:41.725Z,23.60
2018-05-27T20:06:09.407Z,23.60
2018-05-27T20:08:36.934Z,23.60
2018-05-27T20:11:05.382Z,23.60
2018-05-27T20:13:33.225Z,23.60
2018-05-27T20:16:00.999Z,23.60
2018-05-27T20:18:28.761Z,23.60
2018-05-27T20:20:56.935Z,23.50
2018-05-27T20:23:24.729Z,23.50
2018-05-27T20:25:52.361Z,23.50
2018-05-27T20:28:20.283Z,23.40
2018-05-27T20:30:47.898Z,23.40
2018-05-27T20:33:15.463Z,23.40
2018-05-27T20:35:42.965Z,23.40
2018-05-27T20:38:10.575Z,23.40
2018-05-27T20:40:38.461Z,23.40
2018-05-27T20:43:06.454Z,23.40
2018-05-27T20:45:33.974Z,23.40
2018-05-27T20:48:01.533Z,23.40
2018-05-27T20:50:29.143Z,23.40
2018-05-27T20:52:56.780Z,23.40
2018-05-27T20:55:24.380Z,23.40
2018-05-27T20:57:51.916Z,23.40
2018-05-27T21:00:19.428Z,23.40
2018-05-27T21:02:46.947Z,23.30
2018-05-27T21:05:14.940Z,23.30
2018-05-27T21:07:42.609Z,23.30
2018-05-27T21:10:10.133Z,23.30
2018-05-27T21:12:37.739Z,23.30
2018-05-27T21:15:05.334Z,23.20
2018-05-27T21:17:32.986Z,23.20
2018-05-27T21:20:00.527Z,23.20
2018-05-27T21:22:28.146Z,23.10
2018-05-27T21:24:55.728Z,23.00
2018-05-27T21:27:23.809Z,22.90
2018-05-27T21:29:51.714Z,22.80
2018-05-27T21:32:19.176Z,22.80
2018-05-27T21:34:46.680Z,22.70
2018-05-27T21:37:14.228Z,22.60
2018-05-27T21:39:41.799Z,22.60
2018-05-27T21:42:09.403Z,22.50
2018-05-27T21:44:36.925Z,22.40
2018-05-27T21:47:04.420Z,22.40
2018-05-27T21:49:31.963Z,22.30
2018-05-27T21:51:59.711Z,22.30
2018-05-27T21:54:27.255Z,22.20
2018-05-27T21:56:55.472Z,22.20
2018-05-27T21:59:23.008Z,22.10
2018-05-27T22:01:50.496Z,22.10
2018-05-27T22:04:18.121Z,22.10
2018-05-27T22:06:45.678Z,22.10
2018-05-27T22:09:13.623Z,22.00
2018-05-27T22:11:41.180Z,22.00
2018-05-27T22:14:08.730Z,22.00
2018-05-27T22:16:36.435Z,22.00
2018-05-27T22:19:04.393Z,21.90
2018-05-27T22:34:28.090Z,22.10
2018-05-27T22:36:55.761Z,22.10
2018-05-27T22:39:23.441Z,22.10
2018-05-27T22:41:50.998Z,22.00
2018-05-27T22:44:18.894Z,21.90
2018-05-27T22:46:46.450Z,21.90
2018-05-27T22:49:13.992Z,21.80
2018-05-27T22:51:41.532Z,21.80
2018-05-27T22:54:09.428Z,21.70
2018-05-27T22:56:36.991Z,21.70
2018-05-27T22:59:04.498Z,21.70
2018-05-27T23:01:32.444Z,21.60
2018-05-27T23:03:59.938Z,21.60
2018-05-27T23:06:27.431Z,21.60
2018-05-27T23:08:55.424Z,21.50
2018-05-27T23:11:23.084Z,21.50
2018-05-27T23:13:50.760Z,21.50
2018-05-27T23:16:18.276Z,21.50
2018-05-27T23:18:45.796Z,21.40
2018-05-27T23:21:13.455Z,21.40
2018-05-27T23:23:41.116Z,21.40
2018-05-27T23:26:08.623Z,21.40
2018-05-27T23:28:36.209Z,21.40
2018-05-27T23:31:04.178Z,21.30
2018-05-27T23:33:31.757Z,21.30
2018-05-27T23:35:59.729Z,21.20
2018-05-27T23:38:27.753Z,21.20
2018-05-27T23:40:57.390Z,21.20
2018-05-27T23:43:25.053Z,21.20
2018-05-27T23:45:52.655Z,21.20
2018-05-27T23:48:20.192Z,21.10
2018-05-27T23:50:47.720Z,21.10
2018-05-27T23:53:15.234Z,21.10
2018-05-27T23:55:43.191Z,21.10
2018-05-27T23:58:10.819Z,21.10
